AF7706 / F-GMZA 7700 Squawk Report (24th of May, 2022)

Aircraft A321 Reg No. F-GMZA Age 28 years old
Model A321 Jet engines 2 First flight 10-06-94
Registered 30-06-94 Rollout 06-94 Delivered 30-06-94
Construction No. 0498 Line No. N/A Series 111
ADSHEX 393320 Airline name Air France Owner N/A
Airfield based Paris-Charles de Gaulle~Val-d'Oise~F First tracked N/A
Time Lat Lon Altitude Heading Speed Vertical Rate
2022-05-24 16:15:32 GMT 43.663078 7.207894 0 261 9 0
2022-05-24 16:15:09 GMT 43.663261 7.209379 0 272 13 0
2022-05-24 16:14:20 GMT 43.660809 7.210448 0 351 12 0
2022-05-24 16:14:13 GMT 43.660389 7.210530 0 348 13 0
2022-05-24 16:14:03 GMT 43.659889 7.210644 0 329 15 0
2022-05-24 16:13:53 GMT 43.659561 7.211331 0 247 13 0
2022-05-24 16:13:44 GMT 43.659866 7.211920 0 225 17 0
2022-05-24 16:13:34 GMT 43.660446 7.212716 0 225 22 0
2022-05-24 16:13:24 GMT 43.661098 7.213620 0 225 21 0
2022-05-24 16:13:12 GMT 43.661819 7.214584 0 225 20 0
2022-05-24 16:13:04 GMT 43.662334 7.215319 0 225 19 0
2022-05-24 16:12:49 GMT 43.663101 7.216373 0 225 17 0
2022-05-24 16:11:36 GMT 43.665390 7.220525 0 340 12 0
2022-05-24 16:11:32 GMT 43.665207 7.220604 0 2 12 0
2022-05-24 16:11:22 GMT 43.664509 7.220333 0 19 23 0
2022-05-24 16:11:12 GMT 43.663624 7.219816 0 28 24 0
2022-05-24 16:11:02 GMT 43.662636 7.218900 0 42 30 0
2022-05-24 16:10:51 GMT 43.661331 7.217167 0 45 65 0
2022-05-24 16:10:40 GMT 43.658329 7.213019 175 45 115 0
2022-05-24 16:10:31 GMT 43.654129 7.207223 175 44 133 -512
2022-05-24 16:10:20 GMT 43.650009 7.201538 275 45 134 -832
2022-05-24 16:10:10 GMT 43.645386 7.195087 425 44 134 -704
2022-05-24 16:10:01 GMT 43.641464 7.189767 500 45 133 -576
2022-05-24 16:09:50 GMT 43.636688 7.183142 625 45 135 -832
2022-05-24 16:09:40 GMT 43.632294 7.177015 775 45 137 -832
2022-05-24 16:09:30 GMT 43.627853 7.170751 925 43 140 -768
2022-05-24 16:09:24 GMT 43.624741 7.166663 1,000 42 142 -704
2022-05-24 16:09:21 GMT 43.623138 7.164555 1,050 46 142 -768
2022-05-24 16:09:15 GMT 43.620895 7.161106 1,100 50 142 -640
2022-05-24 16:09:10 GMT 43.618610 7.157527 1,150 42 145 -640
2022-05-24 16:09:06 GMT 43.616913 7.155293 1,200 38 147 -832
2022-05-24 16:08:59 GMT 43.612789 7.151707 1,300 22 152 -832
2022-05-24 16:08:56 GMT 43.610596 7.150567 1,350 14 155 -832
2022-05-24 16:08:46 GMT 43.603340 7.148830 1,450 1 169 -448
2022-05-24 16:08:35 GMT 43.593430 7.148778 1,600 359 184 -896
2022-05-24 16:08:25 GMT 43.586288 7.149225 1,775 355 184 -640
2022-05-24 16:08:19 GMT 43.580902 7.150007 1,825 353 187 -512
2022-05-24 16:08:14 GMT 43.576492 7.150886 1,850 352 192 -448
2022-05-24 16:08:03 GMT 43.566330 7.153146 2,000 350 201 -1024
2022-05-24 16:07:58 GMT 43.561798 7.154335 2,100 347 202 -1216
2022-05-24 16:07:53 GMT 43.556946 7.155932 2,200 347 202 -1216
2022-05-24 16:07:46 GMT 43.550674 7.158104 2,325 345 204 -896
2022-05-24 16:07:35 GMT 43.541107 7.162192 2,475 340 204 -1024
2022-05-24 16:07:26 GMT 43.532272 7.167365 2,625 338 207 -1280
2022-05-24 16:07:15 GMT 43.523224 7.171587 2,825 348 214 -704
2022-05-24 16:07:05 GMT 43.512936 7.173157 2,950 5 232 -1152
2022-05-24 16:06:59 GMT 43.505814 7.171453 3,050 19 234 -576
2022-05-24 16:06:54 GMT 43.501511 7.169154 3,100 28 234 -192
2022-05-24 16:06:45 GMT 43.493477 7.160863 3,150 57 240 -896
2022-05-24 16:06:38 GMT 43.489746 7.152419 3,225 68 241 -640
2022-05-24 16:06:35 GMT 43.488403 7.147326 3,250 76 242 -320
2022-05-24 16:06:26 GMT 43.487045 7.134726 3,300 90 246 -448
2022-05-24 16:06:23 GMT 43.487045 7.129105 3,325 91 247 -448
2022-05-24 16:06:14 GMT 43.488602 7.116011 3,400 104 250 -512
2022-05-24 16:06:03 GMT 43.491943 7.098829 3,550 105 256 -896
2022-05-24 16:05:53 GMT 43.495106 7.082847 3,700 105 262 -640
2022-05-24 16:05:40 GMT 43.499390 7.061462 3,850 105 272 -960
2022-05-24 16:05:33 GMT 43.501762 7.050018 3,975 105 278 -896
2022-05-24 16:05:24 GMT 43.505116 7.033604 4,125 105 282 -1152
2022-05-24 16:05:12 GMT 43.509350 7.013266 4,475 105 281 -2432
2022-05-24 16:05:03 GMT 43.512470 6.998160 4,825 105 281 -2496
2022-05-24 16:04:54 GMT 43.516006 6.980831 5,200 105 283 -2368
2022-05-24 16:04:42 GMT 43.519871 6.961735 5,600 105 284 -2048
2022-05-24 16:04:33 GMT 43.523209 6.945467 5,925 105 285 -1856
2022-05-24 16:04:23 GMT 43.526917 6.927646 6,250 106 286 -1728
2022-05-24 16:04:13 GMT 43.530811 6.909877 6,500 108 290 -1216
2022-05-24 16:04:03 GMT 43.535561 6.892548 6,725 117 290 -1664
2022-05-24 16:03:52 GMT 43.542728 6.875610 7,025 124 290 -1600
2022-05-24 16:03:43 GMT 43.550629 6.859621 7,300 124 289 -1856
2022-05-24 16:03:32 GMT 43.557671 6.845463 7,575 124 289 -1664
2022-05-24 16:03:25 GMT 43.563911 6.832646 7,800 123 289 -1728
2022-05-24 16:03:22 GMT 43.565540 6.829311 7,875 123 290 -1408
2022-05-24 16:03:15 GMT 43.570290 6.819371 8,000 122 291 -1408
2022-05-24 16:03:11 GMT 43.573082 6.813485 8,100 122 291 -1408
2022-05-24 16:03:05 GMT 43.577736 6.803480 8,225 122 293 -1344
2022-05-24 16:03:01 GMT 43.580475 6.797663 8,325 122 295 -1024
2022-05-24 16:02:51 GMT 43.588165 6.781246 8,525 122 297 -1472
2022-05-24 16:02:45 GMT 43.592743 6.771538 8,675 122 298 -1600
2022-05-24 16:02:41 GMT 43.596077 6.764374 8,775 122 298 -1728
2022-05-24 16:02:33 GMT 43.601395 6.753015 8,975 122 298 -1472
2022-05-24 16:02:30 GMT 43.603683 6.748224 9,050 122 298 -1600
2022-05-24 16:02:24 GMT 43.608032 6.738963 9,200 122 299 -1664
2022-05-24 16:02:21 GMT 43.610928 6.732657 9,300 122 299 -1856
2022-05-24 16:02:14 GMT 43.615494 6.722866 9,475 122 299 -1088
2022-05-24 16:02:10 GMT 43.618744 6.715776 9,575 122 300 -960
2022-05-24 16:02:04 GMT 43.623367 6.705684 9,625 122 304 -256
2022-05-24 16:02:00 GMT 43.626385 6.699241 9,650 122 306 0
2022-05-24 16:01:54 GMT 43.631012 6.689205 9,650 122 310 256
2022-05-24 16:01:51 GMT 43.633739 6.683284 9,650 122 312 -192
2022-05-24 16:01:40 GMT 43.642044 6.665380 9,700 122 323 -960
2022-05-24 16:01:31 GMT 43.650101 6.648389 9,900 124 326 -2304
2022-05-24 16:01:20 GMT 43.658970 6.631361 10,250 126 326 -2048
2022-05-24 16:01:13 GMT 43.665302 6.619197 10,475 125 326 -1920
2022-05-24 16:01:10 GMT 43.667767 6.614423 10,575 125 327 -1984
2022-05-24 16:01:03 GMT 43.673630 6.603039 10,775 126 326 -1664
2022-05-24 16:01:00 GMT 43.676800 6.597225 10,875 127 326 -1664
2022-05-24 16:00:53 GMT 43.683781 6.585061 11,100 130 326 -1728
2022-05-24 16:00:50 GMT 43.686218 6.581194 11,175 131 326 -1728
2022-05-24 16:00:43 GMT 43.693188 6.570413 11,375 131 326 -1984
2022-05-24 16:00:36 GMT 43.699844 6.560211 11,575 132 326 -1920
2022-05-24 16:00:29 GMT 43.707058 6.549552 11,800 133 325 -1984
We lost coverage of the aircraft here for a total of 8 minutes
2022-05-24 15:52:06 GMT 44.133270 5.626150 16,600 120 359 -896
2022-05-24 15:51:55 GMT 44.142040 5.605578 16,775 120 360 -896
2022-05-24 15:51:45 GMT 44.150620 5.585398 16,925 120 362 -1024
2022-05-24 15:51:11 GMT 44.179413 5.517692 17,525 120 362 -960
2022-05-24 15:51:08 GMT 44.182343 5.510857 17,600 120 362 -896
2022-05-24 15:51:07 GMT 44.186554 5.500829 17,675 120 362 -832
2022-05-24 15:51:03 GMT 44.186554 5.500829 17,675 120 362 -832
2022-05-24 15:51:01 GMT 44.194382 5.482369 17,700 120 362 -832
2022-05-24 15:50:54 GMT 44.194382 5.482369 17,800 120 362 -960
2022-05-24 15:50:43 GMT 44.203491 5.462363 17,975 125 359 -1152
2022-05-24 15:50:33 GMT 44.214382 5.443592 18,175 133 355 -960
2022-05-24 15:50:22 GMT 44.233337 5.416391 18,325 134 356 -896
2022-05-24 15:50:16 GMT 44.233337 5.416391 18,425 134 357 -960
2022-05-24 15:50:13 GMT 44.237503 5.410505 18,475 134 357 -896
2022-05-24 15:50:01 GMT 44.250324 5.392277 18,650 134 359 -1024
2022-05-24 15:49:57 GMT 44.255348 5.385176 18,750 134 359 -1024
2022-05-24 15:49:56 GMT 44.259586 5.379214 18,775 134 359 -1024
2022-05-24 15:49:54 GMT 44.259586 5.379214 18,800 134 359 -960
2022-05-24 15:49:51 GMT 44.273693 5.359184 18,850 134 360 -1024
2022-05-24 15:49:42 GMT 44.286713 5.340663 18,975 134 361 -384
2022-05-24 15:49:30 GMT 44.286713 5.340663 19,000 134 362 0
2022-05-24 15:49:21 GMT 44.306763 5.313263 19,000 135 362 0
2022-05-24 15:49:13 GMT 44.306763 5.313263 19,000 137 361 0
2022-05-24 15:49:10 GMT 44.310932 5.308138 19,000 139 360 0
2022-05-24 15:49:07 GMT 44.316193 5.301975 19,000 140 360 0
2022-05-24 15:49:04 GMT 44.318985 5.298811 19,000 140 360 -64
2022-05-24 15:49:01 GMT 44.324387 5.292598 19,025 141 358 0
2022-05-24 15:48:57 GMT 44.330612 5.285601 19,025 141 358 0
2022-05-24 15:48:55 GMT 44.333652 5.282280 19,025 140 358 -64
2022-05-24 15:48:53 GMT 44.333652 5.282280 19,025 140 358 0
2022-05-24 15:48:52 GMT 44.336288 5.279192 19,025 140 359 -64
2022-05-24 15:48:50 GMT 44.337749 5.277591 19,025 140 359 -320
2022-05-24 15:48:48 GMT 44.339794 5.275246 19,025 140 361 -384
2022-05-24 15:48:46 GMT 44.341736 5.273045 19,050 140 360 -384
2022-05-24 15:48:45 GMT 44.343658 5.270892 19,050 140 360 -384
2022-05-24 15:48:44 GMT 44.345078 5.269252 19,050 140 360 -384
2022-05-24 15:48:42 GMT 44.347641 5.266375 19,075 141 359 -576
2022-05-24 15:48:41 GMT 44.349060 5.264729 19,075 141 359 -576
2022-05-24 15:48:39 GMT 44.351665 5.261848 19,100 140 360 -896
2022-05-24 15:48:38 GMT 44.352859 5.260489 19,100 140 360 -896
2022-05-24 15:48:35 GMT 44.357391 5.255417 19,175 141 361 -1152
2022-05-24 15:48:34 GMT 44.360744 5.251599 19,200 141 361 -1152
2022-05-24 15:48:32 GMT 44.360744 5.251599 19,225 141 361 -1408
2022-05-24 15:48:29 GMT 44.364761 5.247083 19,275 140 362 -1728
2022-05-24 15:48:26 GMT 44.368423 5.242964 19,350 140 362 -1728
2022-05-24 15:48:25 GMT 44.370209 5.240871 19,400 140 363 -1856
2022-05-24 15:48:24 GMT 44.372707 5.238067 19,450 140 363 -1856
2022-05-24 15:48:22 GMT 44.373871 5.236751 19,500 140 363 -1728
2022-05-24 15:48:21 GMT 44.376617 5.233646 19,550 140 363 -1792
2022-05-24 15:48:19 GMT 44.377644 5.232440 19,575 141 364 -1856
2022-05-24 15:48:18 GMT 44.378994 5.230966 19,600 140 364 -1856
2022-05-24 15:48:16 GMT 44.381599 5.228018 19,675 140 364 -1920
2022-05-24 15:48:15 GMT 44.383072 5.226353 19,700 140 364 -1920
2022-05-24 15:48:13 GMT 44.385509 5.223530 19,775 141 364 -1856
2022-05-24 15:48:11 GMT 44.388165 5.220583 19,825 141 364 -1856
2022-05-24 15:48:09 GMT 44.390446 5.217970 19,875 140 365 -1984
2022-05-24 15:48:07 GMT 44.391842 5.216429 19,925 140 365 -1984
2022-05-24 15:48:05 GMT 44.394287 5.213667 19,975 141 365 -2048
2022-05-24 15:48:04 GMT 44.395432 5.212359 20,000 141 365 -2048
2022-05-24 15:48:02 GMT 44.399105 5.208256 20,075 141 365 -1984
2022-05-24 15:48:01 GMT 44.400238 5.206996 20,100 141 365 -1984
2022-05-24 15:47:59 GMT 44.404083 5.202680 20,300 141 366 -2048
2022-05-24 15:47:56 GMT 44.407242 5.199149 20,300 141 366 -2048
2022-05-24 15:47:47 GMT 44.418823 5.186070 20,625 140 367 -2176
2022-05-24 15:47:46 GMT 44.420238 5.184408 20,675 139 368 -2240
2022-05-24 15:47:44 GMT 44.424614 5.179183 20,775 138 368 -2176
2022-05-24 15:47:43 GMT 44.424614 5.179183 20,775 138 368 -2176
2022-05-24 15:47:42 GMT 44.426056 5.177373 20,825 137 368 -2176
2022-05-24 15:47:40 GMT 44.429455 5.173020 20,925 136 369 -2240
2022-05-24 15:47:39 GMT 44.429455 5.173020 20,925 136 369 -2176
2022-05-24 15:47:37 GMT 44.431877 5.169804 21,000 135 369 -2112
2022-05-24 15:47:35 GMT 44.434708 5.165863 21,075 134 370 -2048
2022-05-24 15:47:34 GMT 44.435852 5.164294 21,100 134 371 -1984
2022-05-24 15:47:32 GMT 44.438232 5.160893 21,175 133 372 -1856
2022-05-24 15:47:30 GMT 44.440704 5.157231 21,250 132 373 -1792
2022-05-24 15:47:29 GMT 44.442909 5.153928 21,300 131 374 -1792
2022-05-24 15:47:27 GMT 44.443954 5.152392 21,325 131 374 -1792
2022-05-24 15:47:26 GMT 44.446472 5.148403 21,400 131 374 -1856
2022-05-24 15:47:24 GMT 44.447388 5.146964 21,400 131 374 -1920
2022-05-24 15:47:23 GMT 44.450729 5.141669 21,500 131 375 -2048
2022-05-24 15:47:21 GMT 44.450729 5.141669 21,500 131 375 -2048
2022-05-24 15:47:20 GMT 44.452011 5.139640 21,550 131 375 -2176
2022-05-24 15:47:17 GMT 44.455570 5.133965 21,650 131 376 -2560
2022-05-24 15:47:14 GMT 44.459152 5.128326 21,800 131 375 -2816
2022-05-24 15:47:10 GMT 44.468327 5.113667 22,075 131 374 -2944
2022-05-24 15:47:06 GMT 44.468327 5.113667 22,450 131 372 -1600
2022-05-24 15:47:01 GMT 44.474098 5.104422 22,450 131 372 -1600
2022-05-24 15:46:59 GMT 44.477783 5.098572 22,550 131 372 -1600
2022-05-24 15:46:57 GMT 44.478882 5.096806 22,575 131 372 -1472
2022-05-24 15:46:55 GMT 44.481316 5.092967 22,650 131 374 -1216
2022-05-24 15:46:54 GMT 44.482269 5.091378 22,675 131 374 -1344
2022-05-24 15:46:52 GMT 44.485519 5.086278 22,700 131 374 -1408
2022-05-24 15:46:51 GMT 44.486618 5.084512 22,750 131 374 -1728
2022-05-24 15:46:49 GMT 44.487762 5.082681 22,775 132 374 -2112
2022-05-24 15:46:47 GMT 44.490326 5.078757 22,825 132 374 -2176
2022-05-24 15:46:46 GMT 44.491650 5.076822 22,900 132 374 -2176
2022-05-24 15:46:45 GMT 44.492626 5.075349 22,925 133 373 -2048
2022-05-24 15:46:43 GMT 44.494907 5.071865 22,975 134 373 -2176
2022-05-24 15:46:41 GMT 44.497562 5.068047 23,050 134 373 -2176
2022-05-24 15:46:40 GMT 44.498886 5.066136 23,100 135 373 -1984
2022-05-24 15:46:39 GMT 44.499470 5.065233 23,100 135 373 -1984
2022-05-24 15:46:35 GMT 44.503708 5.059472 23,475 135 372 -2432
2022-05-24 15:46:30 GMT 44.510921 5.049491 23,475 135 371 -2368
2022-05-24 15:46:28 GMT 44.512802 5.046910 23,550 135 373 -1984
2022-05-24 15:46:23 GMT 44.518250 5.039389 23,700 135 373 -1920
2022-05-24 15:46:22 GMT 44.519394 5.037834 23,725 135 373 -1920
2022-05-24 15:46:18 GMT 44.524200 5.031215 23,850 135 374 -1664
2022-05-24 15:46:17 GMT 44.525539 5.029394 23,875 135 374 -1600
2022-05-24 15:46:15 GMT 44.528008 5.025910 23,925 135 374 -1408
2022-05-24 15:46:14 GMT 44.529217 5.024302 23,950 135 375 -1408
2022-05-24 15:46:13 GMT 44.531731 5.020819 24,000 135 376 -1280
2022-05-24 15:46:11 GMT 44.532940 5.019144 24,025 135 376 -1152
2022-05-24 15:46:09 GMT 44.535553 5.015520 24,075 135 377 -1088
2022-05-24 15:46:08 GMT 44.536743 5.013885 24,075 135 378 -1152
2022-05-24 15:46:06 GMT 44.539307 5.010354 24,125 135 379 -1472
2022-05-24 15:46:05 GMT 44.541000 5.008000 24,150 135 380 -1600
2022-05-24 15:46:04 GMT 44.543518 5.004534 24,200 135 381 -1536
2022-05-24 15:46:02 GMT 44.544861 5.002665 24,250 135 381 -1472
2022-05-24 15:46:00 GMT 44.547043 4.999629 24,275 135 382 -1472
2022-05-24 15:45:59 GMT 44.548279 4.997929 24,300 135 382 -1472
2022-05-24 15:45:55 GMT 44.554821 4.988932 24,450 135 385 -1792
2022-05-24 15:45:53 GMT 44.557388 4.985308 24,500 135 385 -1856
2022-05-24 15:45:51 GMT 44.558716 4.983477 24,525 135 385 -1792
2022-05-24 15:45:50 GMT 44.561337 4.979821 24,600 135 386 -1792
2022-05-24 15:45:47 GMT 44.565262 4.974452 24,700 135 386 -2048
2022-05-24 15:45:45 GMT 44.566589 4.972621 24,725 135 387 -2048
2022-05-24 15:45:44 GMT 44.567760 4.970979 24,750 135 387 -2112
2022-05-24 15:45:43 GMT 44.570229 4.967629 24,825 135 386 -2240
2022-05-24 15:45:41 GMT 44.571396 4.966021 24,875 135 386 -2240
2022-05-24 15:45:40 GMT 44.572678 4.964251 24,900 135 386 -2304
2022-05-24 15:45:38 GMT 44.575882 4.959804 24,975 135 386 -2368
2022-05-24 15:45:37 GMT 44.576374 4.959121 25,000 135 386 -2304
2022-05-24 15:45:36 GMT 44.579590 4.954703 25,100 135 386 -2368
2022-05-24 15:45:34 GMT 44.580704 4.953159 25,150 135 386 -2368
2022-05-24 15:45:32 GMT 44.583031 4.949944 25,225 135 386 -2304
2022-05-24 15:45:31 GMT 44.584167 4.948360 25,250 135 386 -2304
2022-05-24 15:45:29 GMT 44.587006 4.944502 25,325 135 386 0
2022-05-24 15:45:28 GMT 44.588341 4.942642 25,375 135 386 -1984
2022-05-24 15:45:27 GMT 44.589752 4.940709 25,400 135 386 -1920
2022-05-24 15:45:24 GMT 44.593460 4.935608 25,475 135 387 -1856
2022-05-24 15:45:22 GMT 44.595276 4.933129 25,550 135 387 -1728
2022-05-24 15:45:20 GMT 44.598404 4.928807 25,625 135 388 -1664
2022-05-24 15:45:19 GMT 44.599606 4.927100 25,650 135 388 -1664
2022-05-24 15:45:16 GMT 44.603981 4.921071 25,725 135 390 -1536
2022-05-24 15:45:14 GMT 44.606323 4.917886 25,775 135 390 -1536
2022-05-24 15:45:13 GMT 44.607697 4.915989 25,800 135 390 -1536
2022-05-24 15:45:09 GMT 44.614655 4.906376 25,950 135 391 -1728
2022-05-24 15:45:06 GMT 44.616440 4.903891 26,000 135 392 -1856
2022-05-24 15:45:04 GMT 44.618958 4.900426 26,075 135 393 -1984
2022-05-24 15:45:03 GMT 44.620834 4.897810 26,100 135 393 -2048
2022-05-24 15:45:02 GMT 44.622116 4.896109 26,150 135 393 -2112
2022-05-24 15:45:00 GMT 44.624725 4.892447 26,225 135 393 -2112
2022-05-24 15:44:58 GMT 44.627289 4.888916 26,275 135 393 -2112
2022-05-24 15:44:57 GMT 44.628746 4.886906 26,325 135 393 -2112
2022-05-24 15:44:55 GMT 44.630749 4.884093 26,375 135 393 -2112
2022-05-24 15:44:53 GMT 44.633400 4.880475 26,450 135 393 -1984
2022-05-24 15:44:52 GMT 44.635803 4.877080 26,500 135 394 -1728
2022-05-24 15:44:50 GMT 44.637775 4.874446 26,550 135 394 -1728
2022-05-24 15:44:48 GMT 44.640106 4.871164 26,600 135 395 -1664
2022-05-24 15:44:47 GMT 44.642578 4.867793 26,650 135 395 -1536
2022-05-24 15:44:45 GMT 44.643860 4.865962 26,675 135 396 -1536
2022-05-24 15:44:44 GMT 44.646469 4.862366 26,750 135 397 -1472
2022-05-24 15:44:41 GMT 44.647881 4.860378 26,775 135 398 -1536
2022-05-24 15:44:39 GMT 44.650578 4.856627 26,825 135 398 -1408
2022-05-24 15:44:37 GMT 44.653198 4.853014 26,875 135 399 -1472
2022-05-24 15:44:36 GMT 44.654629 4.851000 26,900 135 400 -1600
2022-05-24 15:44:33 GMT 44.660889 4.842355 27,000 135 401 -1664
2022-05-24 15:44:31 GMT 44.660889 4.842355 27,025 135 401 -1664
2022-05-24 15:44:30 GMT 44.664963 4.836664 27,100 135 402 -1984
2022-05-24 15:44:28 GMT 44.666267 4.834922 27,150 135 403 -1984
2022-05-24 15:44:26 GMT 44.667618 4.832980 27,175 135 403 -1984
2022-05-24 15:44:25 GMT 44.670876 4.828491 27,250 135 403 -1984
2022-05-24 15:44:23 GMT 44.672058 4.826856 27,300 135 403 -1984
2022-05-24 15:44:22 GMT 44.673203 4.825276 27,325 135 403 -1984
2022-05-24 15:44:21 GMT 44.675949 4.821494 27,400 135 404 -1920
2022-05-24 15:44:19 GMT 44.677917 4.818747 27,425 135 404 -1984
2022-05-24 15:44:18 GMT 44.679859 4.816098 27,475 135 404 -2048
2022-05-24 15:44:16 GMT 44.681076 4.814431 27,525 135 404 -2048
2022-05-24 15:44:15 GMT 44.684006 4.810377 27,600 135 404 -2048
2022-05-24 15:44:13 GMT 44.685165 4.808729 27,625 135 405 -1984
2022-05-24 15:44:11 GMT 44.687866 4.804978 27,700 135 405 -2048
2022-05-24 15:44:10 GMT 44.689041 4.803380 27,725 135 405 -2048
2022-05-24 15:44:09 GMT 44.693455 4.797274 27,800 135 406 -1920
2022-05-24 15:44:07 GMT 44.693455 4.797274 27,825 135 406 -1920
2022-05-24 15:44:06 GMT 44.694626 4.795598 27,850 135 406 -1792
2022-05-24 15:44:04 GMT 44.697327 4.791936 27,925 135 408 -1792
2022-05-24 15:44:03 GMT 44.700027 4.788143 27,975 135 408 -1792
2022-05-24 15:44:01 GMT 44.701229 4.786489 28,000 135 408 -1792
2022-05-24 15:44:00 GMT 44.705429 4.780688 28,100 135 409 -1792
2022-05-24 15:43:58 GMT 44.705429 4.780688 28,100 135 409 -1792
2022-05-24 15:43:56 GMT 44.708405 4.776568 28,175 135 410 -1664
2022-05-24 15:43:55 GMT 44.709732 4.774737 28,200 135 410 -1600
2022-05-24 15:43:53 GMT 44.712112 4.771402 28,250 135 410 -1536
2022-05-24 15:43:52 GMT 44.713531 4.769440 28,275 135 412 -1728
2022-05-24 15:43:51 GMT 44.716541 4.765253 28,350 135 412 -1792
2022-05-24 15:43:48 GMT 44.719009 4.761836 28,400 135 412 -1856
2022-05-24 15:43:46 GMT 44.722458 4.757080 28,450 135 413 -1920
2022-05-24 15:43:45 GMT 44.723106 4.756209 28,475 135 414 -1856
2022-05-24 15:43:43 GMT 44.726131 4.751989 28,550 135 415 -1856
2022-05-24 15:43:42 GMT 44.728683 4.748448 28,625 135 415 -1856
2022-05-24 15:43:40 GMT 44.730103 4.746486 28,650 135 416 -1920
2022-05-24 15:43:37 GMT 44.734325 4.740601 28,750 135 417 -1856
2022-05-24 15:43:36 GMT 44.736469 4.737586 28,800 135 417 -1920
2022-05-24 15:43:34 GMT 44.737820 4.735710 28,825 135 418 -2048
2022-05-24 15:43:33 GMT 44.739944 4.732819 28,875 135 418 -2112
2022-05-24 15:43:31 GMT 44.742645 4.729026 28,950 135 418 -2112
2022-05-24 15:43:30 GMT 44.745266 4.725394 29,025 135 420 -2112
2022-05-24 15:43:28 GMT 44.746765 4.723271 29,050 135 420 -2112
2022-05-24 15:43:27 GMT 44.749512 4.719413 29,125 135 420 -2112
2022-05-24 15:43:25 GMT 44.750885 4.717582 29,175 135 421 -2112
2022-05-24 15:43:23 GMT 44.753784 4.713470 29,250 135 421 -2176
2022-05-24 15:43:22 GMT 44.755051 4.711761 29,275 135 421 -2176
2022-05-24 15:43:20 GMT 44.757889 4.707772 29,350 135 422 -2048
2022-05-24 15:43:19 GMT 44.759090 4.706101 29,375 135 422 -2112
2022-05-24 15:43:18 GMT 44.760269 4.704503 29,425 135 422 -2112
2022-05-24 15:43:16 GMT 44.763062 4.700514 29,475 135 422 -2048
2022-05-24 15:43:15 GMT 44.766586 4.695674 29,550 135 424 -2048
2022-05-24 15:43:12 GMT 44.768600 4.692862 29,600 135 424 -2048
2022-05-24 15:43:11 GMT 44.770218 4.690626 29,675 135 424 -2048
2022-05-24 15:43:10 GMT 44.771713 4.688546 29,700 135 425 -2048
2022-05-24 15:43:08 GMT 44.774639 4.684396 29,775 135 425 -2112
2022-05-24 15:43:06 GMT 44.777435 4.680578 29,850 135 426 -2240
2022-05-24 15:43:05 GMT 44.779110 4.678166 29,900 135 426 -2304
2022-05-24 15:43:03 GMT 44.783066 4.672673 30,000 135 427 -2304
2022-05-24 15:43:00 GMT 44.785950 4.668601 30,075 135 427 -2368
2022-05-24 15:42:58 GMT 44.788654 4.664902 30,150 135 427 -2432
2022-05-24 15:42:57 GMT 44.790188 4.662691 30,200 135 428 -2368
2022-05-24 15:42:56 GMT 44.792564 4.659409 30,275 135 428 -2304
2022-05-24 15:42:54 GMT 44.793961 4.657466 30,300 135 429 -2240
2022-05-24 15:42:51 GMT 44.798309 4.651402 30,425 135 429 -2240
2022-05-24 15:42:49 GMT 44.800278 4.648655 30,475 135 429 -2176
2022-05-24 15:42:47 GMT 44.803223 4.644537 30,575 135 429 -2304
2022-05-24 15:42:46 GMT 44.804764 4.642378 30,600 135 429 -2368
2022-05-24 15:42:45 GMT 44.807053 4.639173 30,675 135 430 -2368
2022-05-24 15:42:44 GMT 44.808426 4.637211 30,700 135 430 -2368
2022-05-24 15:42:42 GMT 44.811417 4.633015 30,800 135 430 -2432
2022-05-24 15:42:40 GMT 44.813461 4.630149 30,850 135 431 -2368
2022-05-24 15:42:36 GMT 44.819183 4.622171 31,025 135 432 -2176
2022-05-24 15:42:32 GMT 44.825245 4.613655 31,175 135 432 -2112
2022-05-24 15:42:30 GMT 44.827927 4.609876 31,250 135 434 -1984
2022-05-24 15:42:26 GMT 44.833374 4.602291 31,375 135 435 -2112
2022-05-24 15:42:21 GMT 44.840149 4.592743 31,550 135 436 -2176
2022-05-24 15:42:18 GMT 44.849125 4.580093 31,800 134 439 -1984
2022-05-24 15:42:15 GMT 44.849125 4.580093 31,775 134 439 -1984
2022-05-24 15:42:11 GMT 44.854290 4.572791 34,175 135 447 -3200
2022-05-24 15:42:08 GMT 44.858459 4.566912 31,975 134 440 -2048
2022-05-24 15:42:05 GMT 44.863461 4.559795 32,200 135 442 -2048
2022-05-24 15:42:01 GMT 44.869003 4.552091 32,250 135 442 -2048
2022-05-24 15:41:58 GMT 44.873329 4.545995 32,350 135 444 -1856
2022-05-24 15:41:55 GMT 44.878098 4.539250 32,450 135 446 -1920
2022-05-24 15:41:51 GMT 44.883408 4.531795 32,575 135 446 -2176
2022-05-24 15:41:48 GMT 44.887756 4.525713 32,675 135 448 -2304
2022-05-24 15:41:44 GMT 44.894375 4.516520 32,875 135 448 -2944
2022-05-24 15:41:41 GMT 44.898376 4.510869 33,025 135 447 -3456
2022-05-24 15:41:38 GMT 44.902771 4.504722 33,200 135 446 -3712
2022-05-24 15:41:34 GMT 44.907921 4.497562 33,425 135 444 -3904
2022-05-24 15:41:30 GMT 44.913971 4.489121 33,700 135 442 -4288
2022-05-24 15:41:24 GMT 44.922119 4.477666 34,125 134 438 -4096
2022-05-24 15:41:21 GMT 44.928078 4.469225 34,400 134 436 -3328
2022-05-24 15:41:18 GMT 44.937153 4.456363 34,825 134 434 -1856
2022-05-24 15:41:14 GMT 44.937153 4.456363 34,700 134 434 -1856
2022-05-24 15:41:11 GMT 44.941818 4.449790 34,825 134 434 -1536
2022-05-24 15:41:07 GMT 44.946396 4.443381 35,000 134 435 -832
2022-05-24 15:41:04 GMT 44.951351 4.436333 34,975 134 435 -832
2022-05-24 15:41:00 GMT 44.956707 4.428763 35,000 134 436 -320
2022-05-24 15:40:57 GMT 44.966034 4.415523 35,050 135 439 64
2022-05-24 15:40:54 GMT 44.966034 4.415523 35,025 135 439 64
2022-05-24 15:40:51 GMT 44.970486 4.409269 35,050 135 439 0
2022-05-24 15:40:44 GMT 44.980541 4.395134 35,050 134 440 0
2022-05-24 15:40:40 GMT 44.985626 4.387926 35,050 135 441 0
2022-05-24 15:40:36 GMT 44.990799 4.380602 35,050 134 441 0
2022-05-24 15:40:32 GMT 44.997116 4.371708 35,050 135 441 0
2022-05-24 15:40:28 GMT 45.003754 4.362292 35,050 135 441 0
2022-05-24 15:40:23 GMT 45.009636 4.354002 35,050 135 441 0
2022-05-24 15:40:20 GMT 45.014099 4.347709 35,050 135 441 0
2022-05-24 15:40:17 GMT 45.018723 4.341234 35,050 134 441 0
2022-05-24 15:40:13 GMT 45.024536 4.333126 35,050 135 441 0
2022-05-24 15:40:10 GMT 45.028839 4.326978 35,050 135 441 0
2022-05-24 15:40:06 GMT 45.034012 4.319720 35,050 134 441 0
2022-05-24 15:40:03 GMT 45.039383 4.312201 35,050 134 441 0
2022-05-24 15:39:57 GMT 45.047607 4.300559 35,050 134 441 0
2022-05-24 15:39:53 GMT 45.053055 4.292777 35,050 134 441 0
2022-05-24 15:39:47 GMT 45.063080 4.278639 35,050 135 442 64
2022-05-24 15:39:43 GMT 45.068245 4.271270 35,050 134 441 64
2022-05-24 15:39:39 GMT 45.073647 4.263633 35,050 135 442 64
2022-05-24 15:39:35 GMT 45.078735 4.256483 35,050 134 443 0
2022-05-24 15:39:32 GMT 45.083237 4.250101 35,050 134 443 64
2022-05-24 15:39:27 GMT 45.097061 4.230540 35,050 134 443 0
2022-05-24 15:39:23 GMT 45.097061 4.230540 35,050 134 443 0
2022-05-24 15:39:16 GMT 45.106651 4.216941 35,050 134 443 0
2022-05-24 15:39:13 GMT 45.112701 4.208367 35,025 134 442 0
2022-05-24 15:39:10 GMT 45.115219 4.204821 35,050 134 442 0
2022-05-24 15:39:07 GMT 45.122040 4.195077 35,025 134 442 0
2022-05-24 15:39:04 GMT 45.124294 4.191887 35,025 134 442 0
2022-05-24 15:38:57 GMT 45.142448 4.166029 35,025 134 442 64
2022-05-24 15:38:52 GMT 45.142448 4.166029 33,975 134 439 64
2022-05-24 15:38:46 GMT 45.151062 4.153837 35,025 135 441 64
2022-05-24 15:38:42 GMT 45.156418 4.146293 35,025 135 441 64
2022-05-24 15:38:39 GMT 45.161316 4.139361 35,025 135 441 64
2022-05-24 15:38:35 GMT 45.170517 4.126282 35,000 134 440 64
2022-05-24 15:38:32 GMT 45.177658 4.116146 35,000 134 440 64
2022-05-24 15:38:27 GMT 45.177658 4.116146 35,000 134 440 64
2022-05-24 15:38:24 GMT 45.181553 4.110628 35,000 134 440 0
2022-05-24 15:38:21 GMT 45.185883 4.104532 35,000 134 440 64
2022-05-24 15:38:15 GMT 45.194496 4.092273 35,000 134 440 64
2022-05-24 15:38:11 GMT 45.199768 4.084691 35,000 134 439 0
2022-05-24 15:38:06 GMT 45.207111 4.074253 34,975 134 440 64
2022-05-24 15:38:03 GMT 45.211258 4.068277 34,975 134 439 128
2022-05-24 15:37:58 GMT 45.223637 4.050539 34,975 134 439 64
2022-05-24 15:37:55 GMT 45.223637 4.050539 34,975 134 439 64
2022-05-24 15:37:52 GMT 45.228851 4.043103 34,950 134 439 64
2022-05-24 15:37:49 GMT 45.231812 4.038849 34,950 134 439 0
2022-05-24 15:37:45 GMT 45.237648 4.030509 34,950 134 439 0
2022-05-24 15:37:41 GMT 45.243530 4.022042 34,950 134 438 0
2022-05-24 15:37:37 GMT 45.249481 4.013541 34,950 134 438 0
2022-05-24 15:37:34 GMT 45.253235 4.008179 34,950 134 438 0
2022-05-24 15:37:30 GMT 45.259853 3.998688 34,950 134 438 0
2022-05-24 15:37:26 GMT 45.264862 3.991568 34,950 134 438 0
2022-05-24 15:37:22 GMT 45.270187 3.983951 34,950 134 437 0
2022-05-24 15:37:18 GMT 45.275482 3.976397 34,950 134 438 0
2022-05-24 15:37:15 GMT 45.280838 3.968746 34,950 134 438 0
2022-05-24 15:37:12 GMT 45.285038 3.962782 34,975 134 437 0
2022-05-24 15:37:09 GMT 45.289169 3.956844 34,950 134 437 0
2022-05-24 15:37:03 GMT 45.298958 3.942886 34,950 134 437 0
2022-05-24 15:36:59 GMT 45.303196 3.936790 34,950 134 437 0
2022-05-24 15:36:53 GMT 45.311874 3.924277 34,950 134 437 -64
2022-05-24 15:36:49 GMT 45.317505 3.916234 34,950 134 436 -64
2022-05-24 15:36:45 GMT 45.332058 3.895390 33,975 134 437 0
2022-05-24 15:36:38 GMT 45.332058 3.895390 34,000 134 436 -64
2022-05-24 15:36:36 GMT 45.336136 3.889553 34,975 134 436 0
2022-05-24 15:36:32 GMT 45.340855 3.882796 34,975 134 436 -64
2022-05-24 15:36:29 GMT 45.346256 3.875025 40,150 134 436 0
2022-05-24 15:36:25 GMT 45.351608 3.867455 34,975 134 436 0
2022-05-24 15:36:22 GMT 45.355179 3.862283 35,000 134 436 0
2022-05-24 15:36:19 GMT 45.365341 3.847765 35,025 134 437 0
2022-05-24 15:36:15 GMT 45.365341 3.847765 35,000 134 436 0
2022-05-24 15:36:12 GMT 45.369717 3.841463 35,000 134 435 0
2022-05-24 15:36:08 GMT 45.374954 3.833902 35,000 134 436 0
2022-05-24 15:36:05 GMT 45.379913 3.826793 35,025 134 435 -128
2022-05-24 15:36:02 GMT 45.383194 3.822065 35,025 134 436 0
2022-05-24 15:35:58 GMT 45.389828 3.812591 35,025 134 435 0
2022-05-24 15:35:55 GMT 45.394180 3.806305 35,025 134 436 -128
2022-05-24 15:35:52 GMT 45.397614 3.801335 35,025 134 437 0
2022-05-24 15:35:49 GMT 45.402695 3.794011 35,025 134 437 0
2022-05-24 15:35:45 GMT 45.407730 3.786686 35,025 134 437 -64
2022-05-24 15:35:43 GMT 45.412033 3.780474 35,025 134 437 0
2022-05-24 15:35:38 GMT 45.417389 3.772757 35,025 134 437 0
2022-05-24 15:35:35 GMT 45.422649 3.765095 35,025 134 437 0
2022-05-24 15:35:32 GMT 45.426132 3.760071 35,050 134 437 0
2022-05-24 15:35:28 GMT 45.432724 3.750523 35,050 134 437 0
2022-05-24 15:35:25 GMT 45.438034 3.742807 35,050 134 437 0
2022-05-24 15:35:22 GMT 45.440151 3.739706 35,050 134 437 0
2022-05-24 15:35:18 GMT 45.446320 3.730839 35,050 134 437 0
2022-05-24 15:35:15 GMT 45.451229 3.723762 35,050 134 437 0
2022-05-24 15:35:12 GMT 45.454834 3.718545 35,050 134 438 0
2022-05-24 15:35:08 GMT 45.460915 3.709828 35,050 134 438 0
2022-05-24 15:35:04 GMT 45.465755 3.702862 35,050 134 439 64
2022-05-24 15:35:01 GMT 45.471390 3.694622 35,050 134 439 0
2022-05-24 15:34:58 GMT 45.475113 3.689263 35,050 134 439 0
2022-05-24 15:34:55 GMT 45.478512 3.684305 35,050 134 439 0
2022-05-24 15:34:52 GMT 45.483170 3.677477 35,050 134 439 0
2022-05-24 15:34:48 GMT 45.490906 3.666295 35,050 134 439 0
2022-05-24 15:34:45 GMT 45.498108 3.655835 35,050 134 439 0
2022-05-24 15:34:42 GMT 45.498108 3.655835 35,050 134 439 0
2022-05-24 15:34:39 GMT 45.502487 3.649423 35,050 134 439 0
2022-05-24 15:34:35 GMT 45.507511 3.642236 35,050 134 439 0
2022-05-24 15:34:32 GMT 45.511795 3.636073 35,050 134 439 0
2022-05-24 15:34:28 GMT 45.517475 3.627833 35,050 134 440 0
2022-05-24 15:34:24 GMT 45.523247 3.619526 35,050 134 440 0
2022-05-24 15:34:21 GMT 45.526600 3.614636 35,050 134 440 0
2022-05-24 15:34:18 GMT 45.532196 3.606524 35,050 134 440 0
2022-05-24 15:34:11 GMT 45.541031 3.593706 35,050 134 440 0
2022-05-24 15:34:08 GMT 45.546112 3.586251 35,050 154 422 0
2022-05-24 15:34:04 GMT 45.551788 3.578059 35,050 134 439 64
2022-05-24 15:34:01 GMT 45.556915 3.570624 35,050 134 439 64
2022-05-24 15:33:55 GMT 45.565189 3.559158 35,050 137 436 0
2022-05-24 15:33:53 GMT 45.567566 3.556068 35,050 138 436 0
2022-05-24 15:33:50 GMT 45.571930 3.550527 35,050 139 435 0
2022-05-24 15:33:45 GMT 45.580135 3.540825 35,050 141 433 0
2022-05-24 15:33:40 GMT 45.587585 3.532640 35,050 144 431 64
2022-05-24 15:33:36 GMT 45.594288 3.525856 35,025 147 428 64
2022-05-24 15:33:33 GMT 45.599396 3.520917 35,025 147 428 64
2022-05-24 15:33:31 GMT 45.602478 3.518097 35,025 148 427 64
2022-05-24 15:33:27 GMT 45.608734 3.512610 35,025 149 427 64
2022-05-24 15:33:24 GMT 45.613651 3.508553 35,025 151 426 128
2022-05-24 15:33:21 GMT 45.619675 3.503768 35,025 152 424 64
2022-05-24 15:33:15 GMT 45.630272 3.495987 35,025 154 423 0
2022-05-24 15:33:11 GMT 45.636841 3.491509 35,000 154 422 64
2022-05-24 15:33:07 GMT 45.643936 3.486618 35,000 154 422 0
2022-05-24 15:33:04 GMT 45.650528 3.482130 35,000 154 422 0
2022-05-24 15:33:01 GMT 45.655197 3.478915 35,000 154 422 0
2022-05-24 15:32:58 GMT 45.666256 3.471336 35,000 154 422 0
2022-05-24 15:32:55 GMT 45.666256 3.471336 35,000 154 421 128
2022-05-24 15:32:52 GMT 45.670578 3.468397 35,000 154 421 0
2022-05-24 15:32:49 GMT 45.675007 3.465431 35,000 154 421 0
2022-05-24 15:32:45 GMT 45.683624 3.459488 35,000 154 421 0
2022-05-24 15:32:43 GMT 45.686550 3.457466 35,000 154 420 64
2022-05-24 15:32:39 GMT 45.700935 3.447578 35,000 154 420 0
2022-05-24 15:32:34 GMT 45.700935 3.447578 35,000 154 420 0
2022-05-24 15:32:31 GMT 45.707596 3.443047 35,000 154 419 0
2022-05-24 15:32:26 GMT 45.715439 3.437582 35,000 154 419 0
2022-05-24 15:32:23 GMT 45.721024 3.433696 35,000 154 419 0
2022-05-24 15:32:20 GMT 45.725555 3.430615 35,000 154 419 0
2022-05-24 15:32:17 GMT 45.732033 3.426155 35,000 154 419 0
2022-05-24 15:32:13 GMT 45.738735 3.421555 35,000 154 419 0
2022-05-24 15:32:10 GMT 45.743206 3.418465 35,000 154 419 0
2022-05-24 15:32:06 GMT 45.751144 3.413064 35,000 154 419 0
2022-05-24 15:32:03 GMT 45.756195 3.409607 35,000 154 419 0
2022-05-24 15:32:00 GMT 45.761456 3.405968 35,000 154 419 0
2022-05-24 15:31:57 GMT 45.766479 3.402546 35,000 154 418 0
2022-05-24 15:31:53 GMT 45.773758 3.397522 34,975 154 418 64
2022-05-24 15:31:48 GMT 45.782501 3.391560 34,975 154 418 64
2022-05-24 15:31:43 GMT 45.791389 3.385437 34,975 154 418 0
2022-05-24 15:31:38 GMT 45.799068 3.380219 34,975 154 418 0
2022-05-24 15:31:33 GMT 45.813313 3.370399 34,975 154 418 0
2022-05-24 15:31:30 GMT 45.813313 3.370399 34,975 154 418 0
2022-05-24 15:31:27 GMT 45.817749 3.367444 34,975 154 418 0
2022-05-24 15:31:24 GMT 45.824661 3.362687 34,975 154 417 0
2022-05-24 15:31:18 GMT 45.835098 3.355452 34,975 154 417 0
2022-05-24 15:31:13 GMT 45.843430 3.349691 34,975 154 417 0
2022-05-24 15:31:10 GMT 45.848602 3.346074 34,975 154 417 0
2022-05-24 15:31:07 GMT 45.854507 3.341987 35,000 154 416 0
2022-05-24 15:31:03 GMT 45.859726 3.338370 35,000 154 416 -64
2022-05-24 15:31:00 GMT 45.865997 3.334083 35,000 154 416 0
2022-05-24 15:30:57 GMT 45.870804 3.330666 35,000 154 416 0
2022-05-24 15:30:53 GMT 45.878998 3.325012 35,000 154 416 0
2022-05-24 15:30:46 GMT 45.888885 3.318139 35,000 154 417 0
2022-05-24 15:30:42 GMT 45.897343 3.312241 35,000 154 416 0
2022-05-24 15:30:39 GMT 45.901382 3.309497 35,000 154 416 0
2022-05-24 15:30:34 GMT 45.910355 3.303267 35,000 154 417 0
2022-05-24 15:30:29 GMT 45.919544 3.296860 35,000 154 417 0
2022-05-24 15:30:22 GMT 45.932190 3.288061 35,000 153 417 64
2022-05-24 15:30:19 GMT 45.936722 3.284912 35,000 153 417 64
2022-05-24 15:30:12 GMT 45.948689 3.276535 35,000 154 418 0
2022-05-24 15:30:09 GMT 45.954601 3.272415 35,000 154 418 0
2022-05-24 15:30:01 GMT 45.972565 3.259925 35,000 154 418 0
2022-05-24 15:29:58 GMT 45.972565 3.259925 35,000 154 418 0
2022-05-24 15:29:52 GMT 45.983322 3.252489 35,000 154 418 0
2022-05-24 15:29:51 GMT 45.984859 3.251472 35,000 154 418 0
2022-05-24 15:29:48 GMT 45.990280 3.247733 35,000 154 418 0
2022-05-24 15:29:40 GMT 46.011200 3.233196 35,000 154 420 0
2022-05-24 15:29:36 GMT 46.011200 3.233196 35,000 154 418 0
2022-05-24 15:29:33 GMT 46.016785 3.229378 35,000 154 418 0
2022-05-24 15:29:30 GMT 46.021824 3.225861 35,000 154 419 0
2022-05-24 15:29:27 GMT 46.032806 3.218324 35,000 154 420 0
2022-05-24 15:29:24 GMT 46.032806 3.218324 35,000 154 420 0
2022-05-24 15:29:20 GMT 46.038628 3.214325 35,000 154 420 0
2022-05-24 15:29:16 GMT 46.045654 3.209518 35,000 154 421 0
2022-05-24 15:29:10 GMT 46.056702 3.201912 35,000 154 421 0
2022-05-24 15:29:03 GMT 46.068283 3.193940 35,000 154 421 0
2022-05-24 15:29:00 GMT 46.075077 3.189194 35,000 154 421 0
2022-05-24 15:28:57 GMT 46.079865 3.185901 35,000 154 421 0
2022-05-24 15:28:50 GMT 46.092255 3.177246 35,000 154 421 0
2022-05-24 15:28:47 GMT 46.096985 3.173910 35,000 154 421 0
2022-05-24 15:28:40 GMT 46.109528 3.165504 35,000 156 419 0
2022-05-24 15:28:36 GMT 46.117172 3.160780 35,000 157 419 0
2022-05-24 15:28:32 GMT 46.126331 3.155548 35,000 159 418 -64
2022-05-24 15:28:29 GMT 46.130009 3.153488 35,000 160 416 0
2022-05-24 15:28:26 GMT 46.147839 3.144630 35,025 164 415 0
2022-05-24 15:28:19 GMT 46.147839 3.144630 35,025 162 416 0
2022-05-24 15:28:16 GMT 46.152420 3.142626 35,025 164 415 0
2022-05-24 15:28:09 GMT 46.165695 3.137066 35,025 164 416 0
2022-05-24 15:28:06 GMT 46.186066 3.128759 35,025 164 419 0
2022-05-24 15:27:59 GMT 46.186066 3.128759 35,025 164 420 -64
2022-05-24 15:27:56 GMT 46.190014 3.127190 35,025 164 422 -320
2022-05-24 15:27:46 GMT 46.209286 3.119362 35,050 164 423 0
2022-05-24 15:27:40 GMT 46.220646 3.114761 35,050 164 425 0
2022-05-24 15:27:37 GMT 46.225388 3.112882 35,050 164 425 0
2022-05-24 15:27:34 GMT 46.231430 3.110404 35,050 164 425 0
2022-05-24 15:27:29 GMT 46.241592 3.106250 35,050 164 426 0
2022-05-24 15:27:24 GMT 46.250160 3.102745 35,050 164 426 0
2022-05-24 15:27:21 GMT 46.257156 3.099886 35,050 164 427 0
2022-05-24 15:27:16 GMT 46.266174 3.096202 35,050 164 426 0
2022-05-24 15:27:09 GMT 46.278885 3.091003 35,050 164 427 0
2022-05-24 15:27:04 GMT 46.287682 3.087433 35,050 164 426 0
2022-05-24 15:26:59 GMT 46.297504 3.083450 35,050 164 426 0
2022-05-24 15:26:55 GMT 46.304947 3.080459 35,050 164 426 0
2022-05-24 15:26:50 GMT 46.314217 3.076721 35,050 164 426 0
2022-05-24 15:26:47 GMT 46.319733 3.074564 35,050 164 426 64
2022-05-24 15:26:44 GMT 46.325203 3.072395 35,025 164 426 0
2022-05-24 15:26:39 GMT 46.335583 3.068275 35,025 164 426 0
2022-05-24 15:26:35 GMT 46.344040 3.064918 35,025 164 426 0
2022-05-24 15:26:27 GMT 46.358093 3.059357 35,025 164 426 0
2022-05-24 15:26:21 GMT 46.372559 3.053596 35,025 164 425 64
2022-05-24 15:26:17 GMT 46.378235 3.051319 35,025 164 425 64
2022-05-24 15:26:14 GMT 46.382553 3.049599 35,025 164 425 64
2022-05-24 15:26:10 GMT 46.396454 3.044084 35,000 164 420 0
2022-05-24 15:26:07 GMT 46.396454 3.044084 35,000 164 425 0
2022-05-24 15:26:04 GMT 46.401546 3.042046 35,000 164 424 0
2022-05-24 15:25:59 GMT 46.410954 3.038269 35,000 164 424 0
2022-05-24 15:25:56 GMT 46.416584 3.036003 35,000 164 424 0
2022-05-24 15:25:53 GMT 46.422089 3.033834 35,000 164 423 0
2022-05-24 15:25:50 GMT 46.429642 3.030820 35,000 164 420 0
2022-05-24 15:25:47 GMT 46.435112 3.028587 35,000 164 423 0
2022-05-24 15:25:44 GMT 46.440536 3.026398 35,000 164 423 0
2022-05-24 15:25:39 GMT 46.449821 3.022682 35,000 164 422 0
2022-05-24 15:25:33 GMT 46.459927 3.018562 35,000 164 422 0
2022-05-24 15:25:26 GMT 46.482082 3.009636 35,000 164 421 0
2022-05-24 15:25:22 GMT 46.482082 3.009636 35,000 164 421 0
2022-05-24 15:25:16 GMT 46.492447 3.005431 35,000 164 420 0
2022-05-24 15:25:11 GMT 46.502060 3.001545 35,000 164 419 0
2022-05-24 15:25:05 GMT 46.512955 2.997191 35,000 164 418 0
2022-05-24 15:24:55 GMT 46.531338 2.989792 35,000 164 418 0
2022-05-24 15:24:45 GMT 46.550491 2.982051 35,025 164 418 0
2022-05-24 15:24:38 GMT 46.563412 2.976883 35,025 164 418 0
2022-05-24 15:24:35 GMT 46.569168 2.974548 35,025 164 419 0
2022-05-24 15:24:28 GMT 46.583313 2.968921 35,025 164 421 0
2022-05-24 15:24:23 GMT 46.601761 2.961485 35,025 164 425 -192
2022-05-24 15:24:14 GMT 46.607803 2.959074 35,050 164 425 -256
2022-05-24 15:24:10 GMT 46.615036 2.956193 35,050 164 425 0
2022-05-24 15:24:07 GMT 46.621811 2.953447 35,050 164 425 0
2022-05-24 15:24:02 GMT 46.631516 2.949554 35,050 164 425 0
2022-05-24 15:23:56 GMT 46.642776 2.945006 35,050 164 425 0
2022-05-24 15:23:52 GMT 46.651794 2.941388 35,050 164 426 0
2022-05-24 15:23:44 GMT 46.664848 2.936096 35,050 164 425 64
2022-05-24 15:23:40 GMT 46.673275 2.932663 35,050 164 425 0
2022-05-24 15:23:37 GMT 46.678951 2.930328 35,050 164 426 0
2022-05-24 15:23:34 GMT 46.684845 2.927923 35,050 164 425 0
2022-05-24 15:23:29 GMT 46.696198 2.923234 35,050 164 426 0
2022-05-24 15:23:26 GMT 46.701416 2.921090 35,050 164 426 0
2022-05-24 15:23:21 GMT 46.708885 2.918037 35,050 164 425 0
2022-05-24 15:23:13 GMT 46.723389 2.912181 35,050 164 425 64
2022-05-24 15:23:06 GMT 46.739143 2.905746 35,025 164 418 0
2022-05-24 15:23:03 GMT 46.742661 2.904343 35,025 164 424 64
2022-05-24 15:22:56 GMT 46.756302 2.898850 35,000 164 418 0
2022-05-24 15:22:53 GMT 46.761520 2.896706 35,025 164 423 128
2022-05-24 15:22:50 GMT 46.768341 2.893893 35,025 164 423 64
2022-05-24 15:22:42 GMT 46.781368 2.888649 35,000 164 422 0
2022-05-24 15:22:36 GMT 46.793976 2.883576 35,000 164 421 0
2022-05-24 15:22:32 GMT 46.800175 2.881096 35,000 164 421 0
2022-05-24 15:22:27 GMT 46.811234 2.876676 35,000 164 419 0
2022-05-24 15:22:22 GMT 46.819588 2.873337 35,000 164 419 0
2022-05-24 15:22:16 GMT 46.831375 2.868704 35,000 164 417 0
2022-05-24 15:22:12 GMT 46.838104 2.866025 35,000 164 417 0
2022-05-24 15:22:05 GMT 46.850739 2.860934 35,000 164 417 0
2022-05-24 15:22:02 GMT 46.857422 2.858254 35,000 164 417 0
2022-05-24 15:21:57 GMT 46.865662 2.854972 35,000 164 417 0
2022-05-24 15:21:54 GMT 46.872665 2.852188 35,000 164 417 0
2022-05-24 15:21:51 GMT 46.876831 2.850471 35,000 164 418 0
2022-05-24 15:21:46 GMT 46.887543 2.846146 35,000 164 417 0
2022-05-24 15:21:42 GMT 46.895050 2.843056 35,000 164 417 0
2022-05-24 15:21:36 GMT 46.904823 2.839050 35,000 164 416 0
2022-05-24 15:21:29 GMT 46.917858 2.833698 35,000 164 417 0
2022-05-24 15:21:24 GMT 46.927074 2.829895 35,000 164 417 0
2022-05-24 15:21:21 GMT 46.932663 2.827641 35,000 164 422 64
2022-05-24 15:21:15 GMT 46.943665 2.823143 35,000 164 419 0
2022-05-24 15:21:11 GMT 46.952354 2.819613 35,000 164 422 64
2022-05-24 15:21:06 GMT 46.961884 2.815727 35,000 164 419 0
2022-05-24 15:21:01 GMT 46.971222 2.811951 35,025 164 418 0
2022-05-24 15:20:54 GMT 46.984314 2.806664 35,000 164 418 0
2022-05-24 15:20:50 GMT 46.990997 2.803986 35,000 164 422 64
2022-05-24 15:20:45 GMT 47.000656 2.800072 35,000 164 419 64
2022-05-24 15:20:41 GMT 47.008575 2.796844 35,000 164 420 64
2022-05-24 15:20:34 GMT 47.021439 2.791725 34,975 164 423 128
2022-05-24 15:20:30 GMT 47.028442 2.788948 34,950 165 428 1088
2022-05-24 15:20:26 GMT 47.036194 2.785879 34,925 165 426 640
2022-05-24 15:20:23 GMT 47.048172 2.781189 34,925 165 426 640
2022-05-24 15:20:20 GMT 47.048172 2.781189 34,825 165 428 1088
2022-05-24 15:20:16 GMT 47.055908 2.778236 34,650 165 428 1152
2022-05-24 15:20:09 GMT 47.068317 2.773414 34,700 165 429 896
2022-05-24 15:20:04 GMT 47.078018 2.769585 34,600 165 429 512
2022-05-24 15:20:00 GMT 47.086330 2.766372 34,550 164 428 576
2022-05-24 15:19:53 GMT 47.098576 2.761512 34,500 164 428 576
2022-05-24 15:19:50 GMT 47.105419 2.758766 34,500 164 428 576
2022-05-24 15:19:42 GMT 47.120041 2.752831 34,425 164 427 576
2022-05-24 15:19:39 GMT 47.125397 2.750702 34,400 164 427 576
2022-05-24 15:19:33 GMT 47.139309 2.745033 34,325 164 427 512
2022-05-24 15:19:29 GMT 47.145172 2.742668 34,275 164 426 320
2022-05-24 15:19:24 GMT 47.153786 2.739117 34,275 164 426 320
2022-05-24 15:19:19 GMT 47.170990 2.732094 34,200 164 424 320
2022-05-24 15:19:16 GMT 47.178040 2.729187 34,200 164 424 320
2022-05-24 15:19:12 GMT 47.178040 2.729187 34,200 164 424 320
2022-05-24 15:19:08 GMT 47.184631 2.726463 34,175 164 423 448
2022-05-24 15:19:04 GMT 47.192139 2.723305 33,950 163 423 640
2022-05-24 15:18:58 GMT 47.202526 2.718975 34,050 163 422 768
2022-05-24 15:18:54 GMT 47.210720 2.715525 34,050 163 422 768
2022-05-24 15:18:51 GMT 47.217098 2.712848 33,900 163 422 640
2022-05-24 15:18:48 GMT 47.222534 2.710533 33,975 163 422 640
2022-05-24 15:18:44 GMT 47.230042 2.707375 33,925 163 422 640
2022-05-24 15:18:41 GMT 47.235855 2.704890 33,875 163 421 576
2022-05-24 15:18:38 GMT 47.241302 2.702568 33,875 163 421 640
2022-05-24 15:18:35 GMT 47.254944 2.696791 33,825 163 421 576
2022-05-24 15:18:32 GMT 47.254944 2.696791 33,775 163 420 768
2022-05-24 15:18:28 GMT 47.259613 2.694809 33,750 163 420 768
2022-05-24 15:18:23 GMT 47.269730 2.690483 33,675 163 420 704
2022-05-24 15:18:20 GMT 47.274029 2.688693 33,650 163 420 768
2022-05-24 15:18:17 GMT 47.279663 2.686298 33,625 163 420 576
2022-05-24 15:18:13 GMT 47.287109 2.683059 33,600 163 419 320
2022-05-24 15:18:10 GMT 47.292526 2.680801 33,575 163 418 192
2022-05-24 15:18:05 GMT 47.302872 2.676270 33,550 163 418 320
2022-05-24 15:18:01 GMT 47.312298 2.672213 33,500 163 417 448
2022-05-24 15:17:57 GMT 47.317184 2.670100 33,500 163 417 448
2022-05-24 15:17:54 GMT 47.322350 2.667847 33,475 163 416 576
2022-05-24 15:17:51 GMT 47.327682 2.665489 33,450 163 416 512
2022-05-24 15:17:48 GMT 47.340088 2.660100 33,400 163 416 576
2022-05-24 15:17:45 GMT 47.340088 2.660100 33,350 163 414 640
2022-05-24 15:17:41 GMT 47.347916 2.656700 33,350 163 414 640
2022-05-24 15:17:38 GMT 47.351624 2.655121 33,275 163 414 512
2022-05-24 15:17:33 GMT 47.362656 2.650314 33,225 163 414 768
2022-05-24 15:17:30 GMT 47.367554 2.648128 33,225 163 414 768
2022-05-24 15:17:27 GMT 47.372864 2.645851 33,075 163 414 704
2022-05-24 15:17:24 GMT 47.383896 2.640976 33,100 163 413 704
2022-05-24 15:17:21 GMT 47.383896 2.640976 33,125 163 413 896
2022-05-24 15:17:15 GMT 47.395020 2.636085 33,000 163 413 896
2022-05-24 15:17:11 GMT 47.406006 2.631155 32,900 163 413 832
2022-05-24 15:17:09 GMT 47.415390 2.626968 32,900 163 413 832
2022-05-24 15:17:05 GMT 47.415390 2.626968 32,875 163 413 640
2022-05-24 15:17:01 GMT 47.419693 2.625046 32,850 163 413 576
2022-05-24 15:16:58 GMT 47.427475 2.621613 32,825 163 413 384
2022-05-24 15:16:54 GMT 47.432774 2.619253 32,575 171 409 896
2022-05-24 15:16:51 GMT 47.438171 2.616859 32,800 163 411 704
2022-05-24 15:16:45 GMT 47.449860 2.611718 32,725 163 411 896
2022-05-24 15:16:42 GMT 47.454391 2.609734 32,675 163 412 1600
2022-05-24 15:16:37 GMT 47.464382 2.605309 32,525 163 413 1536
2022-05-24 15:16:34 GMT 47.470047 2.602798 32,425 171 409 896
2022-05-24 15:16:30 GMT 47.475697 2.600309 32,400 163 414 1344
2022-05-24 15:16:26 GMT 47.484119 2.596576 32,300 163 414 1152
2022-05-24 15:16:23 GMT 47.494263 2.592224 32,175 171 409 896
2022-05-24 15:16:20 GMT 47.499802 2.589890 32,125 165 414 1088
2022-05-24 15:16:18 GMT 47.509304 2.586224 32,075 166 414 1024
2022-05-24 15:16:12 GMT 47.509304 2.586224 31,950 166 413 0
2022-05-24 15:16:02 GMT 47.528671 2.579745 31,850 168 411 896
2022-05-24 15:15:54 GMT 47.544357 2.575238 31,775 168 411 960
2022-05-24 15:15:50 GMT 47.550320 2.573477 31,675 169 411 1280
2022-05-24 15:15:41 GMT 47.569244 2.568054 31,550 169 412 1408
2022-05-24 15:15:34 GMT 47.581787 2.564533 31,400 169 413 1088
2022-05-24 15:15:31 GMT 47.586208 2.563265 31,300 169 412 1152
2022-05-24 15:15:28 GMT 47.593185 2.561394 31,300 169 412 1152
2022-05-24 15:15:25 GMT 47.597626 2.560226 31,250 169 413 896
2022-05-24 15:15:23 GMT 47.601013 2.559265 31,225 169 412 896
2022-05-24 15:15:19 GMT 47.623627 2.553497 31,125 170 411 320
2022-05-24 15:15:12 GMT 47.623627 2.553497 31,100 170 410 448
2022-05-24 15:15:04 GMT 47.638302 2.549885 30,850 170 409 1088
2022-05-24 15:15:01 GMT 47.642818 2.548758 30,850 170 409 1152
2022-05-24 15:14:58 GMT 47.654037 2.546082 30,850 170 409 1152
2022-05-24 15:14:55 GMT 47.654037 2.546082 30,850 170 409 1152
2022-05-24 15:14:53 GMT 47.657715 2.545236 30,700 171 410 1280
2022-05-24 15:14:49 GMT 47.665421 2.543404 30,725 171 409 1216
2022-05-24 15:14:41 GMT 47.680897 2.539814 30,525 171 409 896
2022-05-24 15:14:37 GMT 47.686707 2.538460 30,525 171 409 896
2022-05-24 15:14:32 GMT 47.699020 2.535645 30,450 171 408 768
2022-05-24 15:14:28 GMT 47.703754 2.534602 30,400 171 408 640
2022-05-24 15:14:24 GMT 47.712112 2.532623 30,350 171 408 640
2022-05-24 15:14:21 GMT 47.716919 2.531525 30,275 170 408 576
2022-05-24 15:14:18 GMT 47.722549 2.530151 30,275 170 407 576
2022-05-24 15:14:11 GMT 47.736374 2.526924 30,175 170 405 704
2022-05-24 15:14:08 GMT 47.755234 2.522392 30,150 170 404 768
2022-05-24 15:14:01 GMT 47.762146 2.520676 30,075 170 404 704
2022-05-24 15:13:57 GMT 47.762146 2.520676 30,050 170 404 704
2022-05-24 15:13:52 GMT 47.778934 2.516573 29,925 170 402 704
2022-05-24 15:13:48 GMT 47.778934 2.516573 29,925 170 402 640
2022-05-24 15:13:41 GMT 47.791946 2.513397 29,800 170 400 768
2022-05-24 15:13:33 GMT 47.806355 2.509883 29,725 170 400 832
2022-05-24 15:13:29 GMT 47.812641 2.508334 29,600 170 399 1024
2022-05-24 15:13:25 GMT 47.821518 2.506119 29,600 170 399 1024
2022-05-24 15:13:22 GMT 47.826374 2.504883 29,550 170 399 1536
2022-05-24 15:13:20 GMT 47.835342 2.502548 29,425 170 400 1472
2022-05-24 15:13:17 GMT 47.843224 2.500516 29,425 170 400 1536
2022-05-24 15:13:13 GMT 47.843224 2.500516 29,325 170 400 1536
2022-05-24 15:13:10 GMT 47.847599 2.499390 29,200 170 401 1024
2022-05-24 15:13:06 GMT 47.853840 2.497840 29,200 170 401 1024
2022-05-24 15:13:03 GMT 47.862545 2.495587 29,075 170 401 1024
2022-05-24 15:13:00 GMT 47.865738 2.494789 28,950 170 401 1088
2022-05-24 15:12:56 GMT 47.873337 2.492867 28,950 170 401 1280
2022-05-24 15:12:53 GMT 47.879929 2.491150 28,875 170 401 1280
2022-05-24 15:12:50 GMT 47.889130 2.488815 28,775 170 400 1472
2022-05-24 15:12:47 GMT 47.889130 2.488815 28,775 170 400 1280
2022-05-24 15:12:42 GMT 47.899086 2.486220 28,675 170 400 1280
2022-05-24 15:12:40 GMT 47.902588 2.485313 28,575 169 401 832
2022-05-24 15:12:37 GMT 47.907761 2.483940 28,575 169 401 832
2022-05-24 15:12:30 GMT 47.920269 2.480657 28,475 169 400 896
2022-05-24 15:12:27 GMT 47.925888 2.479202 28,450 169 399 640
2022-05-24 15:12:22 GMT 47.935410 2.476662 28,375 169 398 896
2022-05-24 15:12:17 GMT 47.943497 2.474530 28,300 169 397 1216
2022-05-24 15:12:12 GMT 47.953693 2.471783 28,200 169 397 1024
2022-05-24 15:12:08 GMT 47.960815 2.469811 28,100 169 395 1152
2022-05-24 15:12:00 GMT 47.975990 2.465586 27,975 169 395 1216
2022-05-24 15:11:57 GMT 47.980598 2.464388 27,800 169 394 1024
2022-05-24 15:11:51 GMT 47.997452 2.459740 27,800 169 394 768
2022-05-24 15:11:48 GMT 47.997452 2.459740 27,775 169 393 704
2022-05-24 15:11:40 GMT 48.012115 2.455726 27,675 169 391 704
2022-05-24 15:11:36 GMT 48.017670 2.454208 27,650 169 388 1088
2022-05-24 15:11:32 GMT 48.033112 2.450162 27,500 169 388 1024
2022-05-24 15:11:28 GMT 48.033112 2.450162 27,500 169 388 1088
2022-05-24 15:11:21 GMT 48.045319 2.446930 27,300 170 389 1664
2022-05-24 15:11:18 GMT 48.062065 2.442486 27,125 170 387 1856
2022-05-24 15:11:11 GMT 48.062065 2.442486 27,125 170 387 1856
2022-05-24 15:11:07 GMT 48.069748 2.440514 26,975 170 388 1728
2022-05-24 15:11:02 GMT 48.079926 2.437866 26,825 170 389 1792
2022-05-24 15:10:57 GMT 48.087982 2.435875 26,675 170 389 1728
2022-05-24 15:10:51 GMT 48.097641 2.433472 26,500 170 390 1344
2022-05-24 15:10:48 GMT 48.115448 2.429008 26,225 170 390 1408
2022-05-24 15:10:41 GMT 48.115448 2.429008 26,250 170 390 1088
2022-05-24 15:10:38 GMT 48.122543 2.427292 26,225 170 390 1088
2022-05-24 15:10:35 GMT 48.127007 2.426147 26,175 170 389 1024
2022-05-24 15:10:30 GMT 48.139763 2.423049 26,075 170 388 1088
2022-05-24 15:10:27 GMT 48.139763 2.423049 26,050 170 388 1088
2022-05-24 15:10:24 GMT 48.145981 2.421524 25,900 170 387 1152
2022-05-24 15:10:21 GMT 48.151073 2.420232 25,825 170 385 1344
2022-05-24 15:10:17 GMT 48.157497 2.418682 25,850 170 386 1088
2022-05-24 15:10:12 GMT 48.167130 2.416288 25,750 170 385 1344
2022-05-24 15:10:10 GMT 48.169510 2.415654 25,650 170 384 1472
2022-05-24 15:10:07 GMT 48.175049 2.414246 25,650 170 384 1472
2022-05-24 15:10:04 GMT 48.181053 2.412728 25,550 170 384 1664
2022-05-24 15:10:01 GMT 48.186268 2.411354 25,475 169 385 1664
2022-05-24 15:09:57 GMT 48.193577 2.409331 25,350 168 385 1536
2022-05-24 15:09:54 GMT 48.205074 2.405717 25,100 165 386 1536
2022-05-24 15:09:50 GMT 48.205074 2.405717 25,200 166 386 1472
2022-05-24 15:09:47 GMT 48.211166 2.403541 25,100 165 386 1536
2022-05-24 15:09:45 GMT 48.216526 2.401452 25,025 164 386 1600
2022-05-24 15:09:41 GMT 48.221878 2.399245 24,950 163 386 1536
2022-05-24 15:09:37 GMT 48.227692 2.396710 24,850 162 387 1472
2022-05-24 15:09:33 GMT 48.238827 2.391478 24,625 162 387 1472
2022-05-24 15:09:31 GMT 48.238827 2.391478 24,675 162 386 1600
2022-05-24 15:09:27 GMT 48.245453 2.388329 24,600 162 386 1600
2022-05-24 15:09:23 GMT 48.252094 2.385190 24,400 162 386 1792
2022-05-24 15:09:20 GMT 48.261635 2.380708 24,425 163 386 1600
2022-05-24 15:09:18 GMT 48.261635 2.380708 24,325 162 386 1792
2022-05-24 15:09:16 GMT 48.263405 2.379913 24,300 163 386 1728
2022-05-24 15:09:12 GMT 48.271042 2.376427 24,175 163 386 1472
2022-05-24 15:09:10 GMT 48.273693 2.375288 24,125 163 385 1472
2022-05-24 15:09:07 GMT 48.280071 2.372469 24,025 163 385 1728
2022-05-24 15:09:04 GMT 48.285141 2.370230 23,925 164 385 2240
2022-05-24 15:09:00 GMT 48.291000 2.367765 23,825 164 385 2240
2022-05-24 15:08:57 GMT 48.303314 2.362624 23,625 164 386 2176
2022-05-24 15:08:53 GMT 48.303314 2.362624 23,550 164 387 1856
2022-05-24 15:08:49 GMT 48.309860 2.359948 23,425 165 387 1280
2022-05-24 15:08:47 GMT 48.314194 2.358158 23,300 164 387 1664
2022-05-24 15:08:44 GMT 48.320061 2.355845 23,250 164 386 1216
2022-05-24 15:08:41 GMT 48.326431 2.353257 23,175 164 386 1216
2022-05-24 15:08:36 GMT 48.335140 2.349773 23,075 165 384 1472
2022-05-24 15:08:30 GMT 48.343197 2.346593 22,950 165 383 1536
2022-05-24 15:08:27 GMT 48.355637 2.341496 22,725 164 383 1728
2022-05-24 15:08:23 GMT 48.355637 2.341496 22,625 164 383 1472
2022-05-24 15:08:21 GMT 48.358883 2.340160 22,600 164 382 1600
2022-05-24 15:08:17 GMT 48.365726 2.337341 22,600 164 382 1664
2022-05-24 15:08:13 GMT 48.371658 2.334806 22,425 161 382 1472
2022-05-24 15:08:09 GMT 48.377598 2.332065 22,425 161 382 1472
2022-05-24 15:08:07 GMT 48.383324 2.329174 22,325 159 382 1536
2022-05-24 15:08:03 GMT 48.389053 2.326003 22,250 157 382 1728
2022-05-24 15:08:00 GMT 48.393890 2.323102 22,200 157 382 1792
2022-05-24 15:07:57 GMT 48.405807 2.315080 21,950 154 381 1920
2022-05-24 15:07:53 GMT 48.405807 2.315080 20,700 154 382 2112
2022-05-24 15:07:50 GMT 48.409950 2.312116 21,825 154 381 1920
2022-05-24 15:07:44 GMT 48.418625 2.305861 21,675 154 381 2240
2022-05-24 15:07:41 GMT 48.424667 2.301424 21,525 154 381 2112
2022-05-24 15:07:36 GMT 48.431271 2.296649 21,400 154 383 2112
2022-05-24 15:07:33 GMT 48.436432 2.292833 21,275 154 382 2176
2022-05-24 15:07:31 GMT 48.440117 2.290216 21,200 154 383 2496
2022-05-24 15:07:29 GMT 48.442566 2.288466 21,125 154 383 2496
2022-05-24 15:07:26 GMT 48.447327 2.285015 21,000 154 384 2432
2022-05-24 15:07:24 GMT 48.451382 2.282048 20,900 154 384 2176
2022-05-24 15:07:20 GMT 48.457901 2.277339 20,750 154 384 1856
2022-05-24 15:07:16 GMT 48.463814 2.273013 20,625 154 384 1792
2022-05-24 15:07:13 GMT 48.469540 2.268821 20,525 154 384 1792
2022-05-24 15:07:09 GMT 48.475845 2.264240 20,425 154 384 1792
2022-05-24 15:07:05 GMT 48.480240 2.261141 20,325 154 384 1664
2022-05-24 15:07:02 GMT 48.486694 2.256423 20,225 154 382 1536
2022-05-24 15:06:59 GMT 48.491234 2.253137 20,150 154 382 1536
2022-05-24 15:06:57 GMT 48.494446 2.250824 20,100 154 380 1408
2022-05-24 15:06:55 GMT 48.496910 2.248945 20,050 154 381 1472
2022-05-24 15:06:51 GMT 48.503334 2.244391 19,950 154 379 1536
2022-05-24 15:06:49 GMT 48.512100 2.238042 19,850 154 378 1728
2022-05-24 15:06:46 GMT 48.512100 2.238042 19,800 154 378 1728
2022-05-24 15:06:41 GMT 48.518967 2.233042 19,675 154 377 1536
2022-05-24 15:06:38 GMT 48.522675 2.230506 19,625 154 377 1472
2022-05-24 15:06:36 GMT 48.527802 2.226703 19,550 154 375 1536
2022-05-24 15:06:34 GMT 48.530548 2.224661 19,500 154 374 1472
2022-05-24 15:06:29 GMT 48.538528 2.218805 19,100 183 340 1984
2022-05-24 15:06:26 GMT 48.543320 2.215294 19,275 154 373 1536
2022-05-24 15:06:24 GMT 48.545650 2.213601 19,200 154 372 1344
2022-05-24 15:06:21 GMT 48.550781 2.209872 19,150 154 372 1216
2022-05-24 15:06:18 GMT 48.556545 2.205722 19,100 154 370 1152
2022-05-24 15:06:16 GMT 48.558964 2.203915 19,075 154 368 1216
2022-05-24 15:06:09 GMT 48.569275 2.196491 18,900 154 365 1600
2022-05-24 15:06:05 GMT 48.574677 2.192547 18,800 154 364 1856
2022-05-24 15:06:02 GMT 48.580006 2.188737 18,700 154 363 1920
2022-05-24 15:05:58 GMT 48.585663 2.184589 18,625 154 362 2176
2022-05-24 15:05:56 GMT 48.590515 2.181138 18,475 154 362 2176
2022-05-24 15:05:52 GMT 48.599762 2.174166 18,300 153 363 2176
2022-05-24 15:05:49 GMT 48.599762 2.174166 18,200 153 362 2496
2022-05-24 15:05:45 GMT 48.605896 2.169659 17,900 153 364 2880
2022-05-24 15:05:42 GMT 48.610126 2.166403 17,850 153 364 2752
2022-05-24 15:05:38 GMT 48.616177 2.161921 17,775 153 364 2240
2022-05-24 15:05:35 GMT 48.620544 2.158673 17,525 153 364 2624
2022-05-24 15:05:32 GMT 48.626038 2.154518 17,525 153 364 2624
2022-05-24 15:05:29 GMT 48.630432 2.151067 17,400 153 364 2624
2022-05-24 15:05:25 GMT 48.635971 2.146982 17,250 153 365 2432
2022-05-24 15:05:22 GMT 48.639816 2.144095 17,150 153 366 2304
2022-05-24 15:05:20 GMT 48.646065 2.139298 16,975 153 365 2112
2022-05-24 15:05:17 GMT 48.646065 2.139298 16,975 153 365 2048
2022-05-24 15:05:15 GMT 48.650627 2.135901 16,825 153 365 2048
2022-05-24 15:05:13 GMT 48.653976 2.133371 16,750 153 364 2112
2022-05-24 15:05:10 GMT 48.660915 2.128312 16,600 155 364 1984
2022-05-24 15:05:08 GMT 48.660915 2.128312 16,600 155 364 1984
2022-05-24 15:05:04 GMT 48.674274 2.120578 16,475 167 357 1600
2022-05-24 15:05:00 GMT 48.674274 2.120578 16,225 167 357 1600
2022-05-24 15:04:57 GMT 48.677814 2.119205 16,225 167 357 1600
2022-05-24 15:04:55 GMT 48.682701 2.117759 16,225 170 354 1728
2022-05-24 15:04:52 GMT 48.686737 2.116981 16,050 177 351 2240
2022-05-24 15:04:49 GMT 48.690800 2.116386 15,825 177 351 2240
2022-05-24 15:04:47 GMT 48.693832 2.116136 16,025 179 350 2176
2022-05-24 15:04:45 GMT 48.698528 2.116169 15,925 182 349 2048
2022-05-24 15:04:43 GMT 48.700111 2.116241 15,875 182 349 1984
2022-05-24 15:04:40 GMT 48.705280 2.116458 15,750 182 348 2240
2022-05-24 15:04:38 GMT 48.708492 2.116675 15,650 182 348 1920
2022-05-24 15:04:34 GMT 48.715569 2.117037 15,550 182 347 1408
2022-05-24 15:04:30 GMT 48.721386 2.117326 15,475 182 346 1152
2022-05-24 15:04:27 GMT 48.727112 2.117615 15,400 183 343 1664
2022-05-24 15:04:24 GMT 48.731907 2.117904 14,950 183 340 2496
2022-05-24 15:04:20 GMT 48.737732 2.118249 15,175 183 341 1984
2022-05-24 15:04:17 GMT 48.741806 2.118460 15,050 182 340 2304
2022-05-24 15:04:15 GMT 48.748852 2.118771 14,925 182 340 2560
2022-05-24 15:04:12 GMT 48.753551 2.119060 14,650 183 340 2560
2022-05-24 15:04:10 GMT 48.753551 2.119060 14,675 183 339 2624
2022-05-24 15:04:07 GMT 48.758148 2.119305 14,650 183 340 2688
2022-05-24 15:04:04 GMT 48.766773 2.119711 14,400 183 340 2688
2022-05-24 15:04:02 GMT 48.766773 2.119711 14,400 183 340 2304
2022-05-24 15:04:00 GMT 48.769241 2.119855 14,350 183 340 2560
2022-05-24 15:03:58 GMT 48.779800 2.120432 14,125 183 340 2368
2022-05-24 15:03:54 GMT 48.779800 2.120432 14,075 183 340 2368
2022-05-24 15:03:50 GMT 48.788864 2.120925 13,850 183 339 2112
2022-05-24 15:03:47 GMT 48.788864 2.120925 13,850 183 339 2112
2022-05-24 15:03:44 GMT 48.795135 2.121277 13,700 183 338 2304
2022-05-24 15:03:42 GMT 48.798149 2.121446 13,650 183 338 2368
2022-05-24 15:03:39 GMT 48.801041 2.121629 13,550 183 338 2368
2022-05-24 15:03:37 GMT 48.806019 2.121879 13,425 183 338 2560
2022-05-24 15:03:34 GMT 48.811234 2.122168 13,275 183 337 2688
2022-05-24 15:03:32 GMT 48.822968 2.122826 13,150 183 337 2240
2022-05-24 15:03:27 GMT 48.822968 2.122826 13,025 183 337 2112
2022-05-24 15:03:23 GMT 48.826500 2.122963 12,825 183 336 1920
2022-05-24 15:03:20 GMT 48.832626 2.123319 12,775 183 333 1920
2022-05-24 15:03:18 GMT 48.835602 2.123460 12,700 183 334 1984
2022-05-24 15:03:16 GMT 48.837997 2.123614 12,600 183 332 1664
2022-05-24 15:03:13 GMT 48.842327 2.123831 12,450 182 328 1024
2022-05-24 15:03:11 GMT 48.845490 2.124023 12,500 183 331 1472
2022-05-24 15:03:09 GMT 48.849033 2.124192 12,450 183 328 1088
2022-05-24 15:03:06 GMT 48.853035 2.124409 12,400 183 328 1088
2022-05-24 15:03:04 GMT 48.856342 2.124626 12,350 182 327 1088
2022-05-24 15:03:02 GMT 48.858627 2.124728 12,250 182 320 1088
2022-05-24 15:03:00 GMT 48.863232 2.124915 12,275 182 320 1088
2022-05-24 15:02:57 GMT 48.867004 2.125080 12,125 182 316 1088
2022-05-24 15:02:55 GMT 48.870804 2.125291 12,175 182 318 1024
2022-05-24 15:02:53 GMT 48.872269 2.125291 12,175 182 316 1088
2022-05-24 15:02:49 GMT 48.879044 2.125573 12,100 182 312 1024
2022-05-24 15:02:46 GMT 48.883392 2.125643 11,975 181 308 960
2022-05-24 15:02:43 GMT 48.887440 2.125782 11,850 181 308 960
2022-05-24 15:02:40 GMT 48.892410 2.125784 11,925 179 302 1152
2022-05-24 15:02:37 GMT 48.895958 2.125782 11,875 179 302 1152
2022-05-24 15:02:33 GMT 48.901588 2.125782 11,800 179 297 1408
2022-05-24 15:02:30 GMT 48.905457 2.125714 11,725 179 296 1408
2022-05-24 15:02:26 GMT 48.911922 2.125565 11,575 179 293 2304
2022-05-24 15:02:23 GMT 48.915298 2.125502 11,500 179 293 2304
2022-05-24 15:02:19 GMT 48.920582 2.125493 11,350 181 292 2112
2022-05-24 15:02:17 GMT 48.924225 2.125643 11,250 184 289 2048
2022-05-24 15:02:14 GMT 48.926880 2.125784 10,925 188 287 2176
2022-05-24 15:02:12 GMT 48.929195 2.125999 11,100 185 288 2048
2022-05-24 15:02:09 GMT 48.933430 2.126650 10,900 191 285 2368
2022-05-24 15:02:06 GMT 48.937111 2.127445 10,725 192 284 2304
2022-05-24 15:02:04 GMT 48.939156 2.128023 10,825 194 284 2304
2022-05-24 15:02:02 GMT 48.942856 2.129376 10,725 197 283 2240
2022-05-24 15:01:59 GMT 48.946793 2.131348 10,600 203 281 2112
2022-05-24 15:01:55 GMT 48.951447 2.134456 10,450 209 278 1920
2022-05-24 15:01:53 GMT 48.958282 2.140855 10,325 215 276 1856
2022-05-24 15:01:49 GMT 48.958282 2.140855 10,250 218 274 2112
2022-05-24 15:01:47 GMT 48.960663 2.143672 10,100 221 273 2368
2022-05-24 15:01:45 GMT 48.963924 2.148189 10,100 224 272 2304
2022-05-24 15:01:43 GMT 48.963924 2.148189 10,025 227 271 2304
2022-05-24 15:01:38 GMT 48.968159 2.155778 9,775 238 269 2176
2022-05-24 15:01:35 GMT 48.970093 2.160363 9,725 242 268 2304
2022-05-24 15:01:33 GMT 48.972534 2.167559 9,550 248 266 2240
2022-05-24 15:01:27 GMT 48.974487 2.177406 9,400 260 265 1920
2022-05-24 15:01:25 GMT 48.974487 2.177406 9,375 261 265 2048
2022-05-24 15:01:23 GMT 48.974957 2.181943 9,275 265 264 2048
2022-05-24 15:01:18 GMT 48.975559 2.191194 9,100 265 262 2112
2022-05-24 15:01:16 GMT 48.975700 2.193001 9,100 265 262 2304
2022-05-24 15:01:14 GMT 48.975952 2.197618 8,975 265 261 2304
2022-05-24 15:01:12 GMT 48.976166 2.201096 8,900 266 259 2112
2022-05-24 15:01:08 GMT 48.976585 2.208035 8,750 266 259 2176
2022-05-24 15:01:06 GMT 48.976730 2.211069 8,650 266 258 2304
2022-05-24 15:01:04 GMT 48.976959 2.214731 8,550 265 259 2304
2022-05-24 15:01:02 GMT 48.977417 2.222619 8,450 266 255 2432
2022-05-24 15:00:58 GMT 48.977600 2.225929 8,375 266 256 2304
2022-05-24 15:00:56 GMT 48.977840 2.229719 8,075 266 254 2496
2022-05-24 15:00:53 GMT 48.978104 2.234873 8,175 266 255 2432
2022-05-24 15:00:51 GMT 48.978790 2.247831 8,025 266 254 2560
2022-05-24 15:00:46 GMT 48.978790 2.247831 7,875 266 254 2560
2022-05-24 15:00:44 GMT 48.978973 2.251282 7,750 266 253 2688
2022-05-24 15:00:42 GMT 48.979145 2.255450 7,600 266 254 3008
2022-05-24 15:00:38 GMT 48.979843 2.269327 7,275 266 254 2944
2022-05-24 15:00:35 GMT 48.979843 2.269327 7,275 266 255 2816
2022-05-24 15:00:33 GMT 48.979980 2.271987 7,200 266 255 2816
2022-05-24 15:00:31 GMT 48.980122 2.274676 7,150 266 255 2816
2022-05-24 15:00:28 GMT 48.980354 2.279663 7,000 266 256 3200
2022-05-24 15:00:26 GMT 48.980759 2.287832 6,825 266 256 3200
2022-05-24 15:00:24 GMT 48.980759 2.287832 6,775 266 256 3200
2022-05-24 15:00:21 GMT 48.981491 2.304030 6,625 266 257 3072
2022-05-24 15:00:16 GMT 48.981491 2.304030 6,350 266 257 3136
2022-05-24 15:00:14 GMT 48.981754 2.308864 6,200 266 258 3072
2022-05-24 15:00:12 GMT 48.981754 2.308864 6,175 266 258 3072
2022-05-24 15:00:06 GMT 48.982498 2.324114 5,825 266 258 2880
2022-05-24 15:00:04 GMT 48.982498 2.324114 5,750 266 258 2880
2022-05-24 15:00:02 GMT 48.982635 2.327200 5,675 266 257 2752
2022-05-24 14:59:59 GMT 48.983009 2.334306 5,500 266 257 2048
2022-05-24 14:59:56 GMT 48.983231 2.338327 5,425 265 256 1920
2022-05-24 14:59:53 GMT 48.983521 2.342834 5,300 265 255 1856
2022-05-24 14:59:51 GMT 48.983688 2.346285 5,275 265 254 1920
2022-05-24 14:59:46 GMT 48.984314 2.356712 5,100 265 249 1792
2022-05-24 14:59:44 GMT 48.984779 2.364229 4,975 265 245 1792
2022-05-24 14:59:41 GMT 48.984779 2.364229 4,625 266 232 1408
2022-05-24 14:59:35 GMT 48.985565 2.377695 4,775 265 236 1728
2022-05-24 14:59:33 GMT 48.985840 2.381920 4,700 266 233 1536
2022-05-24 14:59:31 GMT 48.986080 2.385696 4,675 266 233 1536
2022-05-24 14:59:28 GMT 48.986454 2.393068 4,550 265 225 320
2022-05-24 14:59:23 GMT 48.986454 2.393068 4,550 265 225 320
2022-05-24 14:59:21 GMT 48.986687 2.396899 4,525 265 223 192
2022-05-24 14:59:18 GMT 48.986984 2.401921 4,400 266 207 1024
2022-05-24 14:59:13 GMT 48.987476 2.410415 4,425 266 199 1088
2022-05-24 14:59:10 GMT 48.987663 2.413667 4,400 265 205 832
2022-05-24 14:59:07 GMT 48.987900 2.417767 4,350 265 197 1024
2022-05-24 14:59:04 GMT 48.988129 2.421992 4,300 266 196 896
2022-05-24 14:59:01 GMT 48.988827 2.434556 4,225 265 192 1024
2022-05-24 14:58:55 GMT 48.989014 2.437953 4,125 266 187 1088
2022-05-24 14:58:52 GMT 48.989014 2.437953 4,100 266 185 960
2022-05-24 14:58:49 GMT 48.989273 2.441993 4,050 266 183 1152
2022-05-24 14:58:46 GMT 48.989529 2.446482 3,975 265 181 1024
2022-05-24 14:58:44 GMT 48.989594 2.447909 3,950 266 180 1088
2022-05-24 14:58:42 GMT 48.989807 2.451035 3,900 266 177 1088
2022-05-24 14:58:40 GMT 48.989914 2.452909 3,875 266 177 1152
2022-05-24 14:58:38 GMT 48.990131 2.456962 3,725 265 168 1024
2022-05-24 14:58:34 GMT 48.990410 2.461371 3,750 265 171 1024
2022-05-24 14:58:32 GMT 48.990509 2.463684 3,725 265 169 1024
2022-05-24 14:58:30 GMT 48.990643 2.465419 3,700 265 168 1024
2022-05-24 14:58:25 GMT 48.991013 2.472135 3,575 266 163 1856
2022-05-24 14:58:23 GMT 48.991150 2.474177 3,550 266 164 1600
2022-05-24 14:58:21 GMT 48.991287 2.476501 3,475 266 163 1920
2022-05-24 14:58:19 GMT 48.991333 2.477628 3,450 266 163 1856
2022-05-24 14:58:15 GMT 48.991623 2.482838 3,200 266 163 1920
2022-05-24 14:58:12 GMT 48.991791 2.485657 3,200 266 163 1920
2022-05-24 14:58:10 GMT 48.992043 2.490355 3,150 266 163 1920
2022-05-24 14:58:01 GMT 48.992786 2.504449 2,625 265 164 2240
2022-05-24 14:57:51 GMT 48.993530 2.517242 2,200 266 167 2496
2022-05-24 14:57:45 GMT 48.993530 2.517242 2,200 265 169 2368
2022-05-24 14:57:41 GMT 48.993855 2.522519 2,025 265 169 2432
2022-05-24 14:57:40 GMT 48.993942 2.523757 1,975 265 169 2432
2022-05-24 14:57:39 GMT 48.994034 2.524954 1,925 265 169 2496
2022-05-24 14:57:38 GMT 48.994263 2.528757 1,800 265 169 2496
2022-05-24 14:57:36 GMT 48.994263 2.528757 1,800 265 169 2496
2022-05-24 14:57:35 GMT 48.994415 2.531264 1,700 266 170 2368
2022-05-24 14:57:33 GMT 48.994492 2.532560 1,675 266 170 2432
2022-05-24 14:57:31 GMT 48.994602 2.534662 1,600 266 170 2432
2022-05-24 14:57:30 GMT 48.994648 2.535818 1,550 266 170 2432
2022-05-24 14:57:29 GMT 48.994720 2.537138 1,500 266 170 2240
2022-05-24 14:57:27 GMT 48.994904 2.540448 1,400 266 169 2112
2022-05-24 14:57:25 GMT 48.995022 2.542251 1,350 266 169 1984

Making use of Plane Finder data

You are free to use the raw flight data, aircraft information and images provided in this report for your own purposes provided the data is correctly attributed to Plane Finder. We ask that you please credit Plane Finder and link to planefinder.net in close proximity to the content.

Optionally one of the following logos (no smaller then 150x24px) can be used and must link to planefinder.net

Embedding the Plane Finder map

You are welcome to embed the Plane Finder playback map on your website to offer visitors a more interactive experience. We suggest using the following HTML code:

<iframe src="//planefinder.net/data/report/AF7706-F-GMZA-7700-squawk-2022-05-24/map" width="800" height="600" seamless="seamless"></iframe>

Where our data comes from

Plane Finder has a global network of data feeds and antenna radars that receive data broadcast directly from aircraft. The primary technologies used are ADS-B and MLAT. We also show feeds from the FAA and a FLARM glider feed.

Click here to find out more about the Plane Finder network.

How we collect our data